createdAt,value
2017-10-14T00:00:26.245Z,11.30
2017-10-14T00:02:53.689Z,11.40
2017-10-14T00:05:21.132Z,11.30
2017-10-14T00:07:48.567Z,11.30
2017-10-14T00:10:16.000Z,11.30
2017-10-14T00:12:43.448Z,11.30
2017-10-14T00:15:10.893Z,11.20
2017-10-14T00:17:38.337Z,11.20
2017-10-14T00:20:05.800Z,11.10
2017-10-14T00:22:33.244Z,11.10
2017-10-14T00:25:00.677Z,11.10
2017-10-14T00:27:28.126Z,11.20
2017-10-14T00:29:55.561Z,11.20
2017-10-14T00:32:23.018Z,11.10
2017-10-14T00:34:50.459Z,11.10
2017-10-14T00:37:18.668Z,11.00
2017-10-14T00:39:46.117Z,11.00
2017-10-14T00:42:13.561Z,11.00
2017-10-14T00:44:41.011Z,11.00
2017-10-14T00:47:08.455Z,11.00
2017-10-14T00:49:35.919Z,11.00
2017-10-14T00:52:04.121Z,10.90
2017-10-14T00:54:31.564Z,10.80
2017-10-14T00:56:59.004Z,10.80
2017-10-14T00:59:26.660Z,10.70
2017-10-14T01:01:54.108Z,10.60
2017-10-14T01:04:21.567Z,10.60
2017-10-14T01:06:49.113Z,10.70
2017-10-14T01:09:16.574Z,10.70
2017-10-14T01:11:44.772Z,10.60
2017-10-14T01:14:12.229Z,10.60
2017-10-14T01:16:39.672Z,10.60
2017-10-14T01:19:07.126Z,10.60
2017-10-14T01:21:34.579Z,10.60
2017-10-14T01:24:02.425Z,10.60
2017-10-14T01:26:29.857Z,10.60
2017-10-14T01:28:57.288Z,10.50
2017-10-14T01:31:24.733Z,10.60
2017-10-14T01:33:52.169Z,10.50
2017-10-14T01:36:19.732Z,10.50
2017-10-14T01:38:47.969Z,10.50
2017-10-14T01:41:16.186Z,10.50
2017-10-14T01:43:43.632Z,10.50
2017-10-14T01:46:11.093Z,10.50
2017-10-14T01:48:38.540Z,10.50
2017-10-14T01:51:05.980Z,10.50
2017-10-14T01:53:33.425Z,10.50
2017-10-14T01:56:00.868Z,10.50
2017-10-14T01:58:28.412Z,10.50
2017-10-14T02:00:55.960Z,10.50
2017-10-14T02:03:23.410Z,10.50
2017-10-14T02:05:50.867Z,10.50
2017-10-14T02:08:19.077Z,10.40
2017-10-14T02:10:46.521Z,10.40
2017-10-14T02:13:13.992Z,10.40
2017-10-14T02:15:41.455Z,10.40
2017-10-14T02:18:09.660Z,10.40
2017-10-14T02:20:37.106Z,10.30
2017-10-14T02:23:04.564Z,10.30
2017-10-14T02:25:32.005Z,10.20
2017-10-14T02:27:59.465Z,10.20
2017-10-14T02:30:26.905Z,10.10
2017-10-14T02:32:54.365Z,10.10
2017-10-14T02:35:22.568Z,10.10
2017-10-14T02:37:50.023Z,10.10
2017-10-14T02:40:17.577Z,10.10
2017-10-14T02:42:45.013Z,10.10
2017-10-14T02:45:12.448Z,10.00
2017-10-14T02:47:39.899Z,10.00
2017-10-14T02:50:07.340Z,10.10
2017-10-14T02:52:34.793Z,10.00
2017-10-14T02:55:02.228Z,10.10
2017-10-14T02:57:29.677Z,10.10
2017-10-14T02:59:57.134Z,10.10
2017-10-14T03:02:24.589Z,10.10
2017-10-14T03:04:52.795Z,10.00
2017-10-14T03:07:20.236Z,9.90
2017-10-14T03:09:47.747Z,9.90
2017-10-14T03:12:15.964Z,10.00
2017-10-14T03:14:43.418Z,9.90
2017-10-14T03:17:10.868Z,9.90
2017-10-14T03:19:38.308Z,10.00
2017-10-14T03:22:05.778Z,9.90
2017-10-14T03:24:33.217Z,9.90
2017-10-14T03:27:00.639Z,9.90
2017-10-14T03:29:28.080Z,9.90
2017-10-14T03:31:55.516Z,9.90
2017-10-14T03:34:24.582Z,9.90
2017-10-14T03:36:52.058Z,9.90
2017-10-14T03:39:20.265Z,9.80
2017-10-14T03:41:47.729Z,9.80
2017-10-14T03:44:15.250Z,9.80
2017-10-14T03:46:43.519Z,9.80
2017-10-14T03:49:10.951Z,9.80
2017-10-14T03:51:38.375Z,9.80
2017-10-14T03:54:05.824Z,9.80
2017-10-14T03:56:33.256Z,9.80
2017-10-14T03:59:00.706Z,9.80
2017-10-14T04:01:28.131Z,9.70
2017-10-14T04:03:55.573Z,9.70
2017-10-14T04:06:23.013Z,9.70
2017-10-14T04:08:50.460Z,9.70
2017-10-14T04:11:17.892Z,9.60
2017-10-14T04:13:46.101Z,9.60
2017-10-14T04:16:13.553Z,9.60
2017-10-14T04:18:41.906Z,9.60
2017-10-14T04:21:09.311Z,9.60
2017-10-14T04:23:36.745Z,9.50
2017-10-14T04:26:04.952Z,9.50
2017-10-14T04:28:32.398Z,9.40
2017-10-14T04:31:00.627Z,9.40
2017-10-14T04:33:28.072Z,9.40
2017-10-14T04:35:55.537Z,9.40
2017-10-14T04:38:22.952Z,9.40
2017-10-14T04:40:51.160Z,9.20
2017-10-14T04:43:18.584Z,9.20
2017-10-14T04:45:46.020Z,9.20
2017-10-14T04:48:13.454Z,9.30
2017-10-14T04:50:40.904Z,9.30
2017-10-14T04:53:08.353Z,9.30
2017-10-14T04:55:35.799Z,9.20
2017-10-14T04:58:03.220Z,9.20
2017-10-14T05:00:30.676Z,9.10
2017-10-14T05:02:58.179Z,9.10
2017-10-14T05:05:25.609Z,9.10
2017-10-14T05:07:53.038Z,9.10
2017-10-14T05:10:21.239Z,9.10
2017-10-14T05:12:49.451Z,9.10
2017-10-14T05:15:16.892Z,9.10
2017-10-14T05:17:44.449Z,9.10
2017-10-14T05:20:11.864Z,9.10
2017-10-14T05:22:39.296Z,9.00
2017-10-14T05:25:06.732Z,9.00
2017-10-14T05:27:34.177Z,9.00
2017-10-14T05:30:01.629Z,9.00
2017-10-14T05:32:29.063Z,9.00
2017-10-14T05:34:56.539Z,9.00
2017-10-14T05:37:23.998Z,9.10
2017-10-14T05:39:51.423Z,9.00
2017-10-14T05:42:18.864Z,9.00
2017-10-14T05:44:46.301Z,9.10
2017-10-14T05:47:14.497Z,9.10
2017-10-14T05:49:42.702Z,9.00
2017-10-14T05:52:10.137Z,9.00
2017-10-14T05:54:37.636Z,9.00
2017-10-14T05:57:05.093Z,9.00
2017-10-14T05:59:33.332Z,9.10
2017-10-14T06:02:02.300Z,9.20
2017-10-14T06:04:29.735Z,9.20
2017-10-14T06:06:57.172Z,9.30
2017-10-14T06:09:24.623Z,9.20
2017-10-14T06:11:52.084Z,9.30
2017-10-14T06:14:19.519Z,9.30
2017-10-14T06:16:46.991Z,9.30
2017-10-14T06:19:15.194Z,9.40
2017-10-14T06:21:42.644Z,9.30
2017-10-14T06:24:10.095Z,9.40
2017-10-14T06:26:38.305Z,9.60
2017-10-14T06:29:06.509Z,9.60
2017-10-14T06:31:33.944Z,9.60
2017-10-14T06:34:01.393Z,9.70
2017-10-14T06:36:28.833Z,9.70
2017-10-14T06:38:56.332Z,9.80
2017-10-14T06:41:24.542Z,9.90
2017-10-14T06:43:51.998Z,9.80
2017-10-14T06:46:19.441Z,9.90
2017-10-14T06:48:46.905Z,10.00
2017-10-14T06:51:14.332Z,10.10
2017-10-14T06:53:41.891Z,10.30
2017-10-14T06:56:09.443Z,10.40
2017-10-14T06:58:36.895Z,10.60
2017-10-14T07:01:04.333Z,10.70
2017-10-14T07:03:31.840Z,10.90
2017-10-14T07:05:59.312Z,11.10
2017-10-14T07:08:26.762Z,11.40
2017-10-14T07:10:54.956Z,11.90
2017-10-14T07:13:22.400Z,11.90
2017-10-14T07:15:49.845Z,12.30
2017-10-14T07:18:17.289Z,12.60
2017-10-14T07:20:44.720Z,12.70
2017-10-14T07:23:12.155Z,12.70
2017-10-14T07:25:39.609Z,12.90
2017-10-14T07:28:07.055Z,13.20
2017-10-14T07:30:34.491Z,13.40
2017-10-14T07:33:01.945Z,13.70
2017-10-14T07:35:29.427Z,14.00
2017-10-14T07:37:56.874Z,14.30
2017-10-14T07:40:24.320Z,14.50
2017-10-14T07:42:52.525Z,15.00
2017-10-14T07:45:19.978Z,15.00
2017-10-14T07:47:47.408Z,15.30
2017-10-14T07:50:14.856Z,15.50
2017-10-14T07:52:42.283Z,15.60
2017-10-14T07:55:09.735Z,15.70
2017-10-14T07:57:37.158Z,15.80
2017-10-14T08:00:04.614Z,16.10
2017-10-14T08:02:32.048Z,16.20
2017-10-14T08:04:59.492Z,16.30
2017-10-14T08:07:26.936Z,16.30
2017-10-14T08:09:54.379Z,16.30
2017-10-14T08:12:21.820Z,16.40
2017-10-14T08:14:49.320Z,16.50
2017-10-14T08:17:16.777Z,16.70
2017-10-14T08:19:45.001Z,16.90
2017-10-14T08:22:12.433Z,16.90
2017-10-14T08:24:39.868Z,16.90
2017-10-14T08:27:07.303Z,16.80
2017-10-14T08:29:34.750Z,16.80
2017-10-14T08:32:02.197Z,16.90
2017-10-14T08:34:29.640Z,17.00
2017-10-14T08:36:57.097Z,17.00
2017-10-14T08:39:24.511Z,17.10
2017-10-14T08:41:51.964Z,17.20
2017-10-14T08:44:19.383Z,17.10
2017-10-14T08:46:46.829Z,17.00
2017-10-14T08:49:14.268Z,17.10
2017-10-14T08:51:41.703Z,17.30
2017-10-14T08:54:09.156Z,17.40
2017-10-14T08:56:36.622Z,17.40
2017-10-14T08:59:04.056Z,17.40
2017-10-14T09:01:31.496Z,17.40
2017-10-14T09:03:58.929Z,17.50
2017-10-14T09:06:26.388Z,17.50
2017-10-14T09:08:54.601Z,17.30
2017-10-14T09:11:22.055Z,17.40
2017-10-14T09:13:49.467Z,17.20
2017-10-14T09:16:17.690Z,17.30
2017-10-14T09:18:45.160Z,17.30
2017-10-14T09:21:13.396Z,17.60
2017-10-14T09:23:40.929Z,17.50
2017-10-14T09:26:08.357Z,17.60
2017-10-14T09:28:36.239Z,17.80
2017-10-14T09:31:03.736Z,17.90
2017-10-14T09:33:31.163Z,18.00
2017-10-14T09:35:59.357Z,18.60
2017-10-14T09:38:26.852Z,18.60
2017-10-14T09:40:54.285Z,18.80
2017-10-14T09:43:21.858Z,19.10
2017-10-14T09:45:49.280Z,19.30
2017-10-14T09:48:16.747Z,19.50
2017-10-14T09:50:44.165Z,19.70
2017-10-14T09:53:11.636Z,19.60
2017-10-14T09:55:39.068Z,19.90
2017-10-14T09:58:06.521Z,20.10
2017-10-14T10:00:33.970Z,20.40
2017-10-14T10:03:01.450Z,20.60
2017-10-14T10:05:29.640Z,21.00
2017-10-14T10:07:57.593Z,21.00
2017-10-14T10:10:25.054Z,21.30
2017-10-14T10:12:52.520Z,21.50
2017-10-14T10:15:19.957Z,21.40
2017-10-14T10:17:47.395Z,21.60
2017-10-14T10:20:14.842Z,21.90
2017-10-14T10:22:42.310Z,22.10
2017-10-14T10:25:09.755Z,22.10
2017-10-14T10:27:37.176Z,21.60
2017-10-14T10:30:04.616Z,21.80
2017-10-14T10:32:32.058Z,21.80
2017-10-14T10:34:59.501Z,21.50
2017-10-14T10:37:26.935Z,21.60
2017-10-14T10:39:54.376Z,21.60
2017-10-14T10:42:21.804Z,21.60
2017-10-14T10:44:49.242Z,21.70
2017-10-14T10:47:16.685Z,21.70
2017-10-14T10:49:44.128Z,21.30
2017-10-14T10:52:11.552Z,21.00
2017-10-14T10:54:38.996Z,20.90
2017-10-14T10:57:06.429Z,20.60
2017-10-14T10:59:34.639Z,20.20
2017-10-14T11:02:02.065Z,20.20
2017-10-14T11:04:29.504Z,20.20
2017-10-14T11:06:56.943Z,20.10
2017-10-14T11:09:24.405Z,20.00
2017-10-14T11:11:51.870Z,19.70
2017-10-14T11:14:20.067Z,19.30
2017-10-14T11:16:47.500Z,19.30
2017-10-14T11:19:15.696Z,19.20
2017-10-14T11:21:43.132Z,19.20
2017-10-14T11:24:11.861Z,19.10
2017-10-14T11:26:40.085Z,18.90
2017-10-14T11:29:07.575Z,18.90
2017-10-14T11:31:35.800Z,18.90
2017-10-14T11:34:03.241Z,18.90
2017-10-14T11:36:30.680Z,18.90
2017-10-14T11:38:58.154Z,19.00
2017-10-14T11:41:28.817Z,19.20
2017-10-14T11:43:56.259Z,19.10
2017-10-14T11:46:23.701Z,19.30
2017-10-14T11:48:51.140Z,19.20
2017-10-14T11:51:18.586Z,19.10
2017-10-14T11:53:46.027Z,19.10
2017-10-14T11:56:13.489Z,19.10
2017-10-14T11:58:40.933Z,19.10
2017-10-14T12:01:08.373Z,19.10
2017-10-14T12:03:35.837Z,19.10
2017-10-14T12:06:03.277Z,19.20
2017-10-14T12:08:30.718Z,19.20
2017-10-14T12:10:58.157Z,19.30
2017-10-14T12:13:25.594Z,19.30
2017-10-14T12:15:53.028Z,19.30
2017-10-14T12:18:20.473Z,19.30
2017-10-14T12:20:47.925Z,19.30
2017-10-14T12:23:15.447Z,19.40
2017-10-14T12:25:42.901Z,19.40
2017-10-14T12:28:10.335Z,19.60
2017-10-14T12:30:37.773Z,19.70
2017-10-14T12:33:05.336Z,19.70
2017-10-14T12:35:32.768Z,19.80
2017-10-14T12:38:00.228Z,19.80
2017-10-14T12:40:27.661Z,19.70
2017-10-14T12:42:55.118Z,19.70
2017-10-14T12:45:22.649Z,19.70
2017-10-14T12:47:50.096Z,19.60
2017-10-14T12:50:17.540Z,19.60
2017-10-14T12:52:44.984Z,19.70
2017-10-14T12:55:12.408Z,19.70
2017-10-14T12:57:39.871Z,19.70
2017-10-14T13:00:07.311Z,19.70
2017-10-14T13:02:34.757Z,19.70
2017-10-14T13:05:02.183Z,19.60
2017-10-14T13:07:29.624Z,19.60
2017-10-14T13:09:57.065Z,19.70
2017-10-14T13:12:24.504Z,19.70
2017-10-14T13:14:51.960Z,19.90
2017-10-14T13:17:19.422Z,19.90
2017-10-14T13:19:47.635Z,19.90
2017-10-14T13:22:15.098Z,19.90
2017-10-14T13:24:42.532Z,19.90
2017-10-14T13:27:10.036Z,19.90
2017-10-14T13:29:37.453Z,19.90
2017-10-14T13:32:04.904Z,19.90
2017-10-14T13:34:33.127Z,20.00
2017-10-14T13:37:00.557Z,20.00
2017-10-14T13:39:28.009Z,20.00
2017-10-14T13:41:55.444Z,20.00
2017-10-14T13:44:22.885Z,20.10
2017-10-14T13:46:50.312Z,20.00
2017-10-14T13:49:17.785Z,20.00
2017-10-14T13:51:45.238Z,20.00
2017-10-14T13:54:12.672Z,20.00
2017-10-14T13:56:40.111Z,19.90
2017-10-14T13:59:07.561Z,19.90
2017-10-14T14:01:35.001Z,19.90
2017-10-14T14:04:02.453Z,19.90
2017-10-14T14:06:29.889Z,19.90
2017-10-14T14:08:57.435Z,19.80
2017-10-14T14:11:24.880Z,19.80
2017-10-14T14:13:52.318Z,19.70
2017-10-14T14:16:19.768Z,19.70
2017-10-14T14:18:47.207Z,19.70
2017-10-14T14:21:14.661Z,19.70
2017-10-14T14:23:42.101Z,19.70
2017-10-14T14:26:09.571Z,19.80
2017-10-14T14:28:37.766Z,19.70
2017-10-14T14:31:05.204Z,19.70
2017-10-14T14:33:32.632Z,19.70
2017-10-14T14:36:00.087Z,19.70
2017-10-14T14:38:27.517Z,19.70
2017-10-14T14:40:54.947Z,19.70
2017-10-14T14:43:22.401Z,19.70
2017-10-14T14:45:49.853Z,19.70
2017-10-14T14:48:18.043Z,19.70
2017-10-14T14:50:45.484Z,19.70
2017-10-14T14:53:12.915Z,19.60
2017-10-14T14:55:40.399Z,19.60
2017-10-14T14:58:07.826Z,19.60
2017-10-14T15:00:35.273Z,19.60
2017-10-14T15:03:02.822Z,19.60
2017-10-14T15:05:30.263Z,19.60
2017-10-14T15:07:57.688Z,19.60
2017-10-14T15:10:25.171Z,19.60
2017-10-14T15:12:52.600Z,19.60
2017-10-14T15:15:20.053Z,19.60
2017-10-14T15:17:47.496Z,19.50
2017-10-14T15:20:14.927Z,19.50
2017-10-14T15:22:42.590Z,19.50
2017-10-14T15:25:10.045Z,19.50
2017-10-14T15:27:37.491Z,19.50
2017-10-14T15:30:04.920Z,19.50
2017-10-14T15:32:32.366Z,19.50
2017-10-14T15:34:59.827Z,19.40
2017-10-14T15:37:27.256Z,19.40
2017-10-14T15:39:54.684Z,19.40
2017-10-14T15:42:22.141Z,19.40
2017-10-14T15:44:49.563Z,19.40
2017-10-14T15:47:17.009Z,19.30
2017-10-14T15:49:45.225Z,19.20
2017-10-14T15:52:12.673Z,19.20
2017-10-14T15:54:40.102Z,19.20
2017-10-14T15:57:07.537Z,19.20
2017-10-14T15:59:34.972Z,19.20
2017-10-14T16:04:36.416Z,19.10
2017-10-14T16:07:03.865Z,19.00
2017-10-14T16:09:31.298Z,19.00
2017-10-14T16:11:58.738Z,19.00
2017-10-14T16:14:26.172Z,18.90
2017-10-14T16:16:53.617Z,18.90
2017-10-14T16:19:21.065Z,18.90
2017-10-14T16:21:48.504Z,18.90
2017-10-14T16:24:15.956Z,18.80
2017-10-14T16:26:43.393Z,18.80
2017-10-14T16:29:10.819Z,18.70
2017-10-14T16:31:38.265Z,18.70
2017-10-14T16:34:05.708Z,18.60
2017-10-14T16:36:33.144Z,18.60
2017-10-14T16:39:00.598Z,18.50
2017-10-14T16:41:28.802Z,18.50
2017-10-14T16:43:56.259Z,18.50
2017-10-14T16:46:23.695Z,18.40
2017-10-14T16:48:51.162Z,18.40
2017-10-14T16:51:18.608Z,18.30
2017-10-14T16:53:46.068Z,18.20
2017-10-14T16:56:13.513Z,18.20
2017-10-14T16:58:40.951Z,18.10
2017-10-14T17:01:09.175Z,17.90
2017-10-14T17:03:36.625Z,17.90
2017-10-14T17:06:04.087Z,17.80
2017-10-14T17:08:32.305Z,17.70
2017-10-14T17:10:59.736Z,17.70
2017-10-14T17:13:27.184Z,17.60
2017-10-14T17:15:54.639Z,17.50
2017-10-14T17:18:22.096Z,17.40
2017-10-14T17:20:49.540Z,17.30
2017-10-14T17:23:16.997Z,17.20
2017-10-14T17:25:45.205Z,16.80
2017-10-14T17:28:12.655Z,16.80
2017-10-14T17:30:40.101Z,16.80
2017-10-14T17:33:07.555Z,16.80
2017-10-14T17:35:35.016Z,16.80
2017-10-14T17:38:02.452Z,16.70
2017-10-14T17:40:29.897Z,16.70
2017-10-14T17:42:57.344Z,16.60
2017-10-14T17:45:24.800Z,16.60
2017-10-14T17:47:52.257Z,16.40
2017-10-14T17:50:19.702Z,16.40
2017-10-14T17:52:47.188Z,16.30
2017-10-14T17:55:15.411Z,16.20
2017-10-14T17:57:42.869Z,16.20
2017-10-14T18:00:10.357Z,16.20
2017-10-14T18:02:37.985Z,16.10
2017-10-14T18:05:05.456Z,16.10
2017-10-14T18:07:32.937Z,16.00
2017-10-14T18:10:00.394Z,16.00
2017-10-14T18:12:27.872Z,15.90
2017-10-14T18:14:55.334Z,15.90
2017-10-14T18:17:22.808Z,15.90
2017-10-14T18:19:50.262Z,15.90
2017-10-14T18:22:17.701Z,15.90
2017-10-14T18:24:45.146Z,15.90
2017-10-14T18:27:12.626Z,15.80
2017-10-14T18:29:40.076Z,15.80
2017-10-14T18:32:07.530Z,15.80
2017-10-14T18:34:34.987Z,15.80
2017-10-14T18:37:02.445Z,15.70
2017-10-14T18:39:29.908Z,15.70
2017-10-14T18:41:57.827Z,15.70
2017-10-14T18:44:25.248Z,15.60
2017-10-14T18:46:52.694Z,15.60
2017-10-14T18:49:20.136Z,15.60
2017-10-14T18:51:47.593Z,15.60
2017-10-14T18:54:15.141Z,15.50
2017-10-14T18:56:42.586Z,15.50
2017-10-14T18:59:10.028Z,15.50
2017-10-14T19:01:37.512Z,15.50
2017-10-14T19:04:05.723Z,15.40
2017-10-14T19:06:33.169Z,15.40
2017-10-14T19:09:00.621Z,15.40
2017-10-14T19:11:28.079Z,15.20
2017-10-14T19:13:55.526Z,15.10
2017-10-14T19:16:23.084Z,15.00
2017-10-14T19:18:50.553Z,15.00
2017-10-14T19:21:18.009Z,15.00
2017-10-14T19:23:45.453Z,14.90
2017-10-14T19:26:12.957Z,14.80
2017-10-14T19:28:40.496Z,14.70
2017-10-14T19:31:07.935Z,14.70
2017-10-14T19:33:35.381Z,14.60
2017-10-14T19:36:02.829Z,14.40
2017-10-14T19:38:30.286Z,14.40
2017-10-14T19:40:57.764Z,14.40
2017-10-14T19:43:25.220Z,14.30
2017-10-14T19:45:52.748Z,14.40
2017-10-14T19:48:20.222Z,14.30
2017-10-14T19:50:48.454Z,14.30
2017-10-14T19:53:15.908Z,14.20
2017-10-14T19:55:43.355Z,14.20
2017-10-14T19:58:10.801Z,14.20
2017-10-14T20:00:38.254Z,14.20
2017-10-14T20:03:05.728Z,14.20
2017-10-14T20:05:33.177Z,14.20
2017-10-14T20:08:00.616Z,14.10
2017-10-14T20:10:28.077Z,14.10
2017-10-14T20:12:55.626Z,14.10
2017-10-14T20:15:23.062Z,14.10
2017-10-14T20:17:50.517Z,14.00
2017-10-14T20:20:17.968Z,14.00
2017-10-14T20:22:45.472Z,14.00
2017-10-14T20:25:13.676Z,14.00
2017-10-14T20:27:41.129Z,13.90
2017-10-14T20:30:08.565Z,13.90
2017-10-14T20:32:36.017Z,13.90
2017-10-14T20:35:03.474Z,13.90
2017-10-14T20:37:30.945Z,13.90
2017-10-14T20:39:58.385Z,13.70
2017-10-14T20:42:25.816Z,13.70
2017-10-14T20:44:53.274Z,13.60
2017-10-14T20:47:20.719Z,13.60
2017-10-14T20:49:48.177Z,13.50
2017-10-14T20:52:15.622Z,13.50
2017-10-14T20:54:43.079Z,13.50
2017-10-14T20:57:10.520Z,13.50
2017-10-14T20:59:37.992Z,13.50
2017-10-14T21:02:06.200Z,13.50
2017-10-14T21:04:33.657Z,13.50
2017-10-14T21:07:01.103Z,13.50
2017-10-14T21:09:28.543Z,13.50
2017-10-14T21:11:56.046Z,13.50
2017-10-14T21:14:23.472Z,13.50
2017-10-14T21:16:51.682Z,13.30
2017-10-14T21:19:19.123Z,13.30
2017-10-14T21:21:46.589Z,13.20
2017-10-14T21:24:14.028Z,13.20
2017-10-14T21:26:41.556Z,13.10
2017-10-14T21:29:09.077Z,13.10
2017-10-14T21:31:36.514Z,13.10
2017-10-14T21:34:03.967Z,13.00
2017-10-14T21:36:31.416Z,13.00
2017-10-14T21:38:58.869Z,13.00
2017-10-14T21:41:26.329Z,13.00
2017-10-14T21:43:53.795Z,12.90
2017-10-14T21:46:21.997Z,12.90
2017-10-14T21:48:49.436Z,12.90
2017-10-14T21:51:16.939Z,12.80
2017-10-14T21:53:44.372Z,12.80
2017-10-14T21:56:11.820Z,12.80
2017-10-14T21:58:39.255Z,12.80
2017-10-14T22:01:06.700Z,12.80
2017-10-14T22:03:34.144Z,12.80
2017-10-14T22:06:01.588Z,12.90
2017-10-14T22:08:29.042Z,12.80
2017-10-14T22:10:57.255Z,12.70
2017-10-14T22:13:24.706Z,12.70
2017-10-14T22:15:52.133Z,12.70
2017-10-14T22:18:19.582Z,12.70
2017-10-14T22:20:47.028Z,12.60
2017-10-14T22:23:14.469Z,12.60
2017-10-14T22:25:41.905Z,12.60
2017-10-14T22:28:09.339Z,12.60
2017-10-14T22:30:36.800Z,12.50
2017-10-14T22:33:04.257Z,12.50
2017-10-14T22:35:31.708Z,12.50
2017-10-14T22:37:59.160Z,12.50
2017-10-14T22:40:26.611Z,12.50
2017-10-14T22:42:54.853Z,12.40
2017-10-14T22:45:22.287Z,12.40
2017-10-14T22:47:49.728Z,12.40
2017-10-14T22:50:17.180Z,12.40
2017-10-14T22:52:44.625Z,12.40
2017-10-14T22:55:12.082Z,12.40
2017-10-14T22:57:39.524Z,12.30
2017-10-14T23:00:06.970Z,12.20
2017-10-14T23:02:34.416Z,12.00
2017-10-14T23:05:01.875Z,11.90
2017-10-14T23:07:30.080Z,11.90
2017-10-14T23:09:57.530Z,11.80
2017-10-14T23:12:24.974Z,11.80
2017-10-14T23:14:52.456Z,11.80
2017-10-14T23:17:20.656Z,11.80
2017-10-14T23:19:48.089Z,11.80
2017-10-14T23:22:15.536Z,11.80
2017-10-14T23:24:42.974Z,11.90
2017-10-14T23:27:10.436Z,11.80
2017-10-14T23:29:37.872Z,11.80
2017-10-14T23:32:05.313Z,11.70
2017-10-14T23:34:32.797Z,11.80
2017-10-14T23:37:00.245Z,11.80
2017-10-14T23:39:27.671Z,11.70
2017-10-14T23:41:55.112Z,11.70
2017-10-14T23:44:22.571Z,11.70
2017-10-14T23:46:50.034Z,11.60
2017-10-14T23:49:17.462Z,11.60
2017-10-14T23:51:44.929Z,11.60
2017-10-14T23:54:12.378Z,11.50
2017-10-14T23:56:39.831Z,11.40
2017-10-14T23:59:07.264Z,11.30
